sensor_id;sensor_type;location;lat;lon;timestamp;P1;durP1;ratioP1;P2;durP2;ratioP2
7199;SDS011;3641;49.082;8.200;2022-10-26T00:00:52;13.43;;;5.43;;
7199;SDS011;3641;49.082;8.200;2022-10-26T00:03:18;11.15;;;4.93;;
7199;SDS011;3641;49.082;8.200;2022-10-26T00:05:46;10.10;;;5.00;;
7199;SDS011;3641;49.082;8.200;2022-10-26T00:08:12;10.85;;;4.72;;
7199;SDS011;3641;49.082;8.200;2022-10-26T00:10:39;10.98;;;4.90;;
7199;SDS011;3641;49.082;8.200;2022-10-26T00:13:07;17.38;;;4.63;;
7199;SDS011;3641;49.082;8.200;2022-10-26T00:15:38;11.88;;;4.97;;
7199;SDS011;3641;49.082;8.200;2022-10-26T00:18:06;11.40;;;4.75;;
7199;SDS011;3641;49.082;8.200;2022-10-26T00:20:32;14.05;;;4.88;;
7199;SDS011;3641;49.082;8.200;2022-10-26T00:23:00;11.73;;;5.32;;
7199;SDS011;3641;49.082;8.200;2022-10-26T00:25:27;9.43;;;5.18;;
7199;SDS011;3641;49.082;8.200;2022-10-26T00:27:53;10.85;;;5.00;;
7199;SDS011;3641;49.082;8.200;2022-10-26T00:30:19;11.18;;;5.10;;
7199;SDS011;3641;49.082;8.200;2022-10-26T00:32:46;9.23;;;4.80;;
7199;SDS011;3641;49.082;8.200;2022-10-26T00:35:12;11.93;;;5.07;;
7199;SDS011;3641;49.082;8.200;2022-10-26T00:37:39;13.13;;;4.95;;
7199;SDS011;3641;49.082;8.200;2022-10-26T00:40:07;11.35;;;4.78;;
7199;SDS011;3641;49.082;8.200;2022-10-26T00:42:34;10.48;;;4.60;;
7199;SDS011;3641;49.082;8.200;2022-10-26T00:45:03;14.32;;;5.28;;
7199;SDS011;3641;49.082;8.200;2022-10-26T00:47:34;10.82;;;4.20;;
7199;SDS011;3641;49.082;8.200;2022-10-26T00:50:06;9.68;;;4.45;;
7199;SDS011;3641;49.082;8.200;2022-10-26T00:52:35;10.13;;;4.63;;
7199;SDS011;3641;49.082;8.200;2022-10-26T00:55:03;14.07;;;5.00;;
7199;SDS011;3641;49.082;8.200;2022-10-26T00:57:32;12.32;;;4.97;;
7199;SDS011;3641;49.082;8.200;2022-10-26T01:00:00;14.35;;;4.70;;
7199;SDS011;3641;49.082;8.200;2022-10-26T01:02:27;13.00;;;5.05;;
7199;SDS011;3641;49.082;8.200;2022-10-26T01:04:53;13.05;;;4.90;;
7199;SDS011;3641;49.082;8.200;2022-10-26T01:07:21;12.93;;;5.10;;
7199;SDS011;3641;49.082;8.200;2022-10-26T01:09:48;11.30;;;4.53;;
7199;SDS011;3641;49.082;8.200;2022-10-26T01:12:14;12.38;;;4.43;;
7199;SDS011;3641;49.082;8.200;2022-10-26T01:14:42;10.52;;;4.72;;
7199;SDS011;3641;49.082;8.200;2022-10-26T01:17:12;16.80;;;4.75;;
7199;SDS011;3641;49.082;8.200;2022-10-26T01:20:00;9.43;;;4.15;;
7199;SDS011;3641;49.082;8.200;2022-10-26T01:22:43;18.55;;;4.97;;
7199;SDS011;3641;49.082;8.200;2022-10-26T01:25:22;11.35;;;4.57;;
7199;SDS011;3641;49.082;8.200;2022-10-26T01:28:04;12.98;;;4.53;;
7199;SDS011;3641;49.082;8.200;2022-10-26T01:30:37;12.63;;;4.03;;
7199;SDS011;3641;49.082;8.200;2022-10-26T01:33:08;11.20;;;3.95;;
7199;SDS011;3641;49.082;8.200;2022-10-26T01:35:44;12.85;;;4.45;;
7199;SDS011;3641;49.082;8.200;2022-10-26T01:38:19;13.00;;;4.20;;
7199;SDS011;3641;49.082;8.200;2022-10-26T01:40:53;9.65;;;4.28;;
7199;SDS011;3641;49.082;8.200;2022-10-26T01:43:23;11.95;;;4.32;;
7199;SDS011;3641;49.082;8.200;2022-10-26T01:45:54;8.18;;;4.00;;
7199;SDS011;3641;49.082;8.200;2022-10-26T01:48:22;9.10;;;4.35;;
7199;SDS011;3641;49.082;8.200;2022-10-26T01:50:51;8.30;;;4.35;;
7199;SDS011;3641;49.082;8.200;2022-10-26T01:53:19;13.25;;;4.85;;
7199;SDS011;3641;49.082;8.200;2022-10-26T01:55:47;9.40;;;4.35;;
7199;SDS011;3641;49.082;8.200;2022-10-26T02:01:28;13.32;;;5.35;;
7199;SDS011;3641;49.082;8.200;2022-10-26T02:04:09;10.65;;;5.05;;
7199;SDS011;3641;49.082;8.200;2022-10-26T02:06:47;15.38;;;5.03;;
7199;SDS011;3641;49.082;8.200;2022-10-26T02:09:22;12.30;;;4.93;;
7199;SDS011;3641;49.082;8.200;2022-10-26T02:11:54;13.02;;;5.10;;
7199;SDS011;3641;49.082;8.200;2022-10-26T02:14:22;10.68;;;4.32;;
7199;SDS011;3641;49.082;8.200;2022-10-26T02:17:00;12.63;;;4.82;;
7199;SDS011;3641;49.082;8.200;2022-10-26T02:19:32;12.38;;;4.35;;
7199;SDS011;3641;49.082;8.200;2022-10-26T02:22:04;13.32;;;4.40;;
7199;SDS011;3641;49.082;8.200;2022-10-26T02:24:38;12.38;;;4.60;;
7199;SDS011;3641;49.082;8.200;2022-10-26T02:27:06;14.32;;;4.63;;
7199;SDS011;3641;49.082;8.200;2022-10-26T02:29:36;9.75;;;4.07;;
7199;SDS011;3641;49.082;8.200;2022-10-26T02:32:06;11.73;;;4.93;;
7199;SDS011;3641;49.082;8.200;2022-10-26T02:34:34;11.00;;;4.72;;
7199;SDS011;3641;49.082;8.200;2022-10-26T02:37:02;12.38;;;4.72;;
7199;SDS011;3641;49.082;8.200;2022-10-26T02:39:30;13.40;;;4.43;;
7199;SDS011;3641;49.082;8.200;2022-10-26T02:41:59;11.77;;;5.25;;
7199;SDS011;3641;49.082;8.200;2022-10-26T02:44:29;15.07;;;5.03;;
7199;SDS011;3641;49.082;8.200;2022-10-26T02:46:59;13.23;;;4.80;;
7199;SDS011;3641;49.082;8.200;2022-10-26T02:49:27;10.35;;;4.80;;
7199;SDS011;3641;49.082;8.200;2022-10-26T02:51:56;12.88;;;5.00;;
7199;SDS011;3641;49.082;8.200;2022-10-26T02:54:31;12.15;;;5.13;;
7199;SDS011;3641;49.082;8.200;2022-10-26T02:57:02;9.75;;;4.57;;
7199;SDS011;3641;49.082;8.200;2022-10-26T02:59:34;13.27;;;4.95;;
7199;SDS011;3641;49.082;8.200;2022-10-26T03:02:03;14.25;;;5.60;;
7199;SDS011;3641;49.082;8.200;2022-10-26T03:04:32;11.63;;;5.18;;
7199;SDS011;3641;49.082;8.200;2022-10-26T03:07:00;9.88;;;4.78;;
7199;SDS011;3641;49.082;8.200;2022-10-26T03:09:27;9.15;;;4.97;;
7199;SDS011;3641;49.082;8.200;2022-10-26T03:11:53;11.60;;;4.40;;
7199;SDS011;3641;49.082;8.200;2022-10-26T03:14:20;17.50;;;5.03;;
7199;SDS011;3641;49.082;8.200;2022-10-26T03:16:46;14.85;;;5.70;;
7199;SDS011;3641;49.082;8.200;2022-10-26T03:19:12;12.73;;;4.82;;
7199;SDS011;3641;49.082;8.200;2022-10-26T03:21:40;10.65;;;5.22;;
7199;SDS011;3641;49.082;8.200;2022-10-26T03:24:07;12.10;;;4.88;;
7199;SDS011;3641;49.082;8.200;2022-10-26T03:26:34;9.90;;;4.65;;
7199;SDS011;3641;49.082;8.200;2022-10-26T03:29:01;12.50;;;5.00;;
7199;SDS011;3641;49.082;8.200;2022-10-26T03:31:27;13.32;;;5.53;;
7199;SDS011;3641;49.082;8.200;2022-10-26T03:33:54;11.23;;;5.35;;
7199;SDS011;3641;49.082;8.200;2022-10-26T03:36:20;11.25;;;5.22;;
7199;SDS011;3641;49.082;8.200;2022-10-26T03:38:48;11.18;;;4.88;;
7199;SDS011;3641;49.082;8.200;2022-10-26T03:41:14;16.50;;;4.88;;
7199;SDS011;3641;49.082;8.200;2022-10-26T03:43:41;17.73;;;5.60;;
7199;SDS011;3641;49.082;8.200;2022-10-26T03:46:07;15.13;;;5.15;;
7199;SDS011;3641;49.082;8.200;2022-10-26T03:48:34;9.55;;;4.45;;
7199;SDS011;3641;49.082;8.200;2022-10-26T03:51:00;12.35;;;4.85;;
7199;SDS011;3641;49.082;8.200;2022-10-26T03:53:26;18.85;;;5.28;;
7199;SDS011;3641;49.082;8.200;2022-10-26T03:55:54;13.75;;;4.70;;
7199;SDS011;3641;49.082;8.200;2022-10-26T03:58:21;12.43;;;5.05;;
7199;SDS011;3641;49.082;8.200;2022-10-26T04:00:47;13.18;;;4.40;;
7199;SDS011;3641;49.082;8.200;2022-10-26T04:03:14;14.50;;;4.85;;
7199;SDS011;3641;49.082;8.200;2022-10-26T04:05:40;11.85;;;5.63;;
7199;SDS011;3641;49.082;8.200;2022-10-26T04:08:06;12.05;;;5.15;;
7199;SDS011;3641;49.082;8.200;2022-10-26T04:10:34;11.73;;;5.07;;
7199;SDS011;3641;49.082;8.200;2022-10-26T04:13:02;12.10;;;5.50;;
7199;SDS011;3641;49.082;8.200;2022-10-26T04:15:28;9.95;;;5.00;;
7199;SDS011;3641;49.082;8.200;2022-10-26T04:17:55;10.68;;;5.05;;
7199;SDS011;3641;49.082;8.200;2022-10-26T04:20:22;13.38;;;4.95;;
7199;SDS011;3641;49.082;8.200;2022-10-26T04:22:55;11.52;;;4.80;;
7199;SDS011;3641;49.082;8.200;2022-10-26T04:25:22;9.73;;;4.80;;
7199;SDS011;3641;49.082;8.200;2022-10-26T04:27:49;13.95;;;5.53;;
7199;SDS011;3641;49.082;8.200;2022-10-26T04:30:16;10.95;;;4.85;;
7199;SDS011;3641;49.082;8.200;2022-10-26T04:32:43;9.73;;;4.72;;
7199;SDS011;3641;49.082;8.200;2022-10-26T04:35:09;14.73;;;5.28;;
7199;SDS011;3641;49.082;8.200;2022-10-26T04:37:36;11.98;;;4.88;;
7199;SDS011;3641;49.082;8.200;2022-10-26T04:40:02;10.18;;;4.82;;
7199;SDS011;3641;49.082;8.200;2022-10-26T04:42:29;16.92;;;6.13;;
7199;SDS011;3641;49.082;8.200;2022-10-26T04:44:58;11.00;;;5.25;;
7199;SDS011;3641;49.082;8.200;2022-10-26T04:47:25;11.55;;;5.18;;
7199;SDS011;3641;49.082;8.200;2022-10-26T04:49:52;12.00;;;4.72;;
7199;SDS011;3641;49.082;8.200;2022-10-26T04:52:18;11.65;;;4.65;;
7199;SDS011;3641;49.082;8.200;2022-10-26T04:54:45;15.95;;;5.60;;
7199;SDS011;3641;49.082;8.200;2022-10-26T04:57:11;10.88;;;5.00;;
7199;SDS011;3641;49.082;8.200;2022-10-26T04:59:38;9.10;;;4.80;;
7199;SDS011;3641;49.082;8.200;2022-10-26T05:02:04;10.40;;;4.90;;
7199;SDS011;3641;49.082;8.200;2022-10-26T05:04:32;16.10;;;5.07;;
7199;SDS011;3641;49.082;8.200;2022-10-26T05:06:58;14.38;;;5.57;;
7199;SDS011;3641;49.082;8.200;2022-10-26T05:09:25;13.10;;;4.88;;
7199;SDS011;3641;49.082;8.200;2022-10-26T05:11:51;12.55;;;5.05;;
7199;SDS011;3641;49.082;8.200;2022-10-26T05:14:17;12.50;;;4.55;;
7199;SDS011;3641;49.082;8.200;2022-10-26T05:16:44;9.10;;;5.00;;
7199;SDS011;3641;49.082;8.200;2022-10-26T05:19:10;11.40;;;4.88;;
7199;SDS011;3641;49.082;8.200;2022-10-26T05:21:38;12.45;;;5.38;;
7199;SDS011;3641;49.082;8.200;2022-10-26T05:24:05;8.40;;;4.97;;
7199;SDS011;3641;49.082;8.200;2022-10-26T05:26:32;9.93;;;4.50;;
7199;SDS011;3641;49.082;8.200;2022-10-26T05:28:58;11.55;;;5.38;;
7199;SDS011;3641;49.082;8.200;2022-10-26T05:31:25;9.05;;;4.65;;
7199;SDS011;3641;49.082;8.200;2022-10-26T05:33:51;14.80;;;4.80;;
7199;SDS011;3641;49.082;8.200;2022-10-26T05:36:18;11.48;;;5.22;;
7199;SDS011;3641;49.082;8.200;2022-10-26T05:38:46;17.52;;;11.20;;
7199;SDS011;3641;49.082;8.200;2022-10-26T05:41:12;10.55;;;5.38;;
7199;SDS011;3641;49.082;8.200;2022-10-26T05:43:39;16.67;;;6.07;;
7199;SDS011;3641;49.082;8.200;2022-10-26T05:46:05;14.95;;;4.97;;
7199;SDS011;3641;49.082;8.200;2022-10-26T05:48:32;13.02;;;5.35;;
7199;SDS011;3641;49.082;8.200;2022-10-26T05:50:58;14.20;;;5.20;;
7199;SDS011;3641;49.082;8.200;2022-10-26T05:53:25;20.33;;;8.55;;
7199;SDS011;3641;49.082;8.200;2022-10-26T05:55:54;16.63;;;6.53;;
7199;SDS011;3641;49.082;8.200;2022-10-26T05:58:21;22.52;;;10.55;;
7199;SDS011;3641;49.082;8.200;2022-10-26T06:00:53;24.08;;;11.70;;
7199;SDS011;3641;49.082;8.200;2022-10-26T06:03:35;10.80;;;5.78;;
7199;SDS011;3641;49.082;8.200;2022-10-26T06:06:10;8.65;;;5.15;;
7199;SDS011;3641;49.082;8.200;2022-10-26T06:08:38;10.25;;;5.13;;
7199;SDS011;3641;49.082;8.200;2022-10-26T06:11:09;13.57;;;5.30;;
7199;SDS011;3641;49.082;8.200;2022-10-26T06:13:36;16.05;;;5.05;;
7199;SDS011;3641;49.082;8.200;2022-10-26T06:16:07;16.75;;;5.63;;
7199;SDS011;3641;49.082;8.200;2022-10-26T06:18:48;12.70;;;4.78;;
7199;SDS011;3641;49.082;8.200;2022-10-26T06:21:30;11.68;;;4.78;;
7199;SDS011;3641;49.082;8.200;2022-10-26T06:24:11;10.15;;;4.97;;
7199;SDS011;3641;49.082;8.200;2022-10-26T06:26:47;14.50;;;5.30;;
7199;SDS011;3641;49.082;8.200;2022-10-26T06:29:23;12.77;;;5.05;;
7199;SDS011;3641;49.082;8.200;2022-10-26T06:32:00;15.73;;;6.32;;
7199;SDS011;3641;49.082;8.200;2022-10-26T06:34:28;17.20;;;5.70;;
7199;SDS011;3641;49.082;8.200;2022-10-26T06:36:59;10.35;;;4.88;;
7199;SDS011;3641;49.082;8.200;2022-10-26T06:39:26;19.75;;;5.57;;
7199;SDS011;3641;49.082;8.200;2022-10-26T06:41:58;12.10;;;4.85;;
7199;SDS011;3641;49.082;8.200;2022-10-26T06:44:25;11.32;;;5.00;;
7199;SDS011;3641;49.082;8.200;2022-10-26T06:46:53;11.35;;;4.50;;
7199;SDS011;3641;49.082;8.200;2022-10-26T06:49:31;12.82;;;5.05;;
7199;SDS011;3641;49.082;8.200;2022-10-26T06:52:02;14.18;;;4.95;;
7199;SDS011;3641;49.082;8.200;2022-10-26T06:54:41;12.43;;;5.00;;
7199;SDS011;3641;49.082;8.200;2022-10-26T06:57:14;12.18;;;5.13;;
7199;SDS011;3641;49.082;8.200;2022-10-26T06:59:43;11.68;;;5.22;;
7199;SDS011;3641;49.082;8.200;2022-10-26T07:02:14;13.30;;;4.95;;
7199;SDS011;3641;49.082;8.200;2022-10-26T07:04:40;11.13;;;4.93;;
7199;SDS011;3641;49.082;8.200;2022-10-26T07:07:07;14.25;;;5.20;;
7199;SDS011;3641;49.082;8.200;2022-10-26T07:09:34;13.88;;;5.47;;
7199;SDS011;3641;49.082;8.200;2022-10-26T07:12:01;8.88;;;4.53;;
7199;SDS011;3641;49.082;8.200;2022-10-26T07:14:29;8.77;;;4.72;;
7199;SDS011;3641;49.082;8.200;2022-10-26T07:16:55;19.05;;;5.57;;
7199;SDS011;3641;49.082;8.200;2022-10-26T07:19:22;13.85;;;4.88;;
7199;SDS011;3641;49.082;8.200;2022-10-26T07:21:48;11.57;;;4.35;;
7199;SDS011;3641;49.082;8.200;2022-10-26T07:24:15;18.02;;;5.28;;
7199;SDS011;3641;49.082;8.200;2022-10-26T07:26:41;11.55;;;5.25;;
7199;SDS011;3641;49.082;8.200;2022-10-26T07:29:08;13.02;;;4.68;;
7199;SDS011;3641;49.082;8.200;2022-10-26T07:31:36;10.57;;;4.88;;
7199;SDS011;3641;49.082;8.200;2022-10-26T07:34:02;13.48;;;5.20;;
7199;SDS011;3641;49.082;8.200;2022-10-26T07:36:29;9.27;;;4.80;;
7199;SDS011;3641;49.082;8.200;2022-10-26T07:38:55;14.18;;;5.78;;
7199;SDS011;3641;49.082;8.200;2022-10-26T07:41:22;14.65;;;5.03;;
7199;SDS011;3641;49.082;8.200;2022-10-26T07:43:48;16.42;;;5.32;;
7199;SDS011;3641;49.082;8.200;2022-10-26T07:46:15;11.38;;;4.85;;
7199;SDS011;3641;49.082;8.200;2022-10-26T07:48:43;13.60;;;4.78;;
7199;SDS011;3641;49.082;8.200;2022-10-26T07:51:10;11.02;;;5.60;;
7199;SDS011;3641;49.082;8.200;2022-10-26T07:53:36;9.80;;;5.20;;
7199;SDS011;3641;49.082;8.200;2022-10-26T07:56:03;10.60;;;5.13;;
7199;SDS011;3641;49.082;8.200;2022-10-26T07:58:30;14.07;;;5.15;;
7199;SDS011;3641;49.082;8.200;2022-10-26T08:00:56;9.10;;;5.00;;
7199;SDS011;3641;49.082;8.200;2022-10-26T08:03:23;10.15;;;4.95;;
7199;SDS011;3641;49.082;8.200;2022-10-26T08:05:51;8.45;;;4.35;;
7199;SDS011;3641;49.082;8.200;2022-10-26T08:08:20;8.23;;;4.57;;
7199;SDS011;3641;49.082;8.200;2022-10-26T08:10:47;8.68;;;4.43;;
7199;SDS011;3641;49.082;8.200;2022-10-26T08:13:13;6.28;;;4.00;;
7199;SDS011;3641;49.082;8.200;2022-10-26T08:15:40;8.02;;;3.88;;
7199;SDS011;3641;49.082;8.200;2022-10-26T08:18:06;8.48;;;3.88;;
7199;SDS011;3641;49.082;8.200;2022-10-26T08:20:33;10.65;;;5.45;;
7199;SDS011;3641;49.082;8.200;2022-10-26T08:23:01;13.98;;;4.20;;
7199;SDS011;3641;49.082;8.200;2022-10-26T08:25:30;13.05;;;4.03;;
7199;SDS011;3641;49.082;8.200;2022-10-26T08:27:59;9.38;;;4.03;;
7199;SDS011;3641;49.082;8.200;2022-10-26T08:30:26;10.15;;;3.88;;
7199;SDS011;3641;49.082;8.200;2022-10-26T08:32:56;14.13;;;4.15;;
7199;SDS011;3641;49.082;8.200;2022-10-26T08:35:24;9.88;;;3.92;;
7199;SDS011;3641;49.082;8.200;2022-10-26T08:37:50;10.50;;;3.95;;
7199;SDS011;3641;49.082;8.200;2022-10-26T08:40:19;8.35;;;3.33;;
7199;SDS011;3641;49.082;8.200;2022-10-26T08:42:49;8.07;;;4.05;;
7199;SDS011;3641;49.082;8.200;2022-10-26T08:45:22;11.50;;;3.42;;
7199;SDS011;3641;49.082;8.200;2022-10-26T08:47:53;8.65;;;3.45;;
7199;SDS011;3641;49.082;8.200;2022-10-26T08:50:24;11.60;;;4.07;;
7199;SDS011;3641;49.082;8.200;2022-10-26T08:52:54;21.75;;;4.65;;
7199;SDS011;3641;49.082;8.200;2022-10-26T08:55:31;10.68;;;4.20;;
7199;SDS011;3641;49.082;8.200;2022-10-26T08:58:04;19.02;;;3.95;;
7199;SDS011;3641;49.082;8.200;2022-10-26T09:00:35;8.07;;;3.40;;
7199;SDS011;3641;49.082;8.200;2022-10-26T09:03:05;6.70;;;3.47;;
7199;SDS011;3641;49.082;8.200;2022-10-26T09:05:40;11.63;;;3.53;;
7199;SDS011;3641;49.082;8.200;2022-10-26T09:08:13;7.28;;;3.70;;
7199;SDS011;3641;49.082;8.200;2022-10-26T09:10:49;13.13;;;4.55;;
7199;SDS011;3641;49.082;8.200;2022-10-26T09:13:27;10.20;;;3.90;;
7199;SDS011;3641;49.082;8.200;2022-10-26T09:16:03;11.00;;;3.80;;
7199;SDS011;3641;49.082;8.200;2022-10-26T09:18:39;7.75;;;4.07;;
7199;SDS011;3641;49.082;8.200;2022-10-26T09:21:15;10.45;;;3.90;;
7199;SDS011;3641;49.082;8.200;2022-10-26T09:23:56;12.18;;;4.07;;
7199;SDS011;3641;49.082;8.200;2022-10-26T09:26:30;10.48;;;4.45;;
7199;SDS011;3641;49.082;8.200;2022-10-26T09:29:04;10.05;;;3.47;;
7199;SDS011;3641;49.082;8.200;2022-10-26T09:31:38;10.45;;;3.85;;
7199;SDS011;3641;49.082;8.200;2022-10-26T09:34:05;17.65;;;4.85;;
7199;SDS011;3641;49.082;8.200;2022-10-26T09:36:39;15.82;;;4.05;;
7199;SDS011;3641;49.082;8.200;2022-10-26T09:39:09;9.77;;;3.50;;
7199;SDS011;3641;49.082;8.200;2022-10-26T09:41:42;8.55;;;3.10;;
7199;SDS011;3641;49.082;8.200;2022-10-26T09:44:17;9.25;;;3.38;;
7199;SDS011;3641;49.082;8.200;2022-10-26T09:46:52;9.55;;;4.20;;
7199;SDS011;3641;49.082;8.200;2022-10-26T09:49:25;9.20;;;3.20;;
7199;SDS011;3641;49.082;8.200;2022-10-26T09:52:01;12.27;;;3.30;;
7199;SDS011;3641;49.082;8.200;2022-10-26T09:54:28;9.75;;;3.78;;
7199;SDS011;3641;49.082;8.200;2022-10-26T09:56:57;14.32;;;3.40;;
7199;SDS011;3641;49.082;8.200;2022-10-26T09:59:26;8.35;;;3.75;;
7199;SDS011;3641;49.082;8.200;2022-10-26T10:01:54;8.77;;;3.00;;
7199;SDS011;3641;49.082;8.200;2022-10-26T10:04:21;11.70;;;3.65;;
7199;SDS011;3641;49.082;8.200;2022-10-26T10:06:49;10.85;;;3.25;;
7199;SDS011;3641;49.082;8.200;2022-10-26T10:09:17;9.40;;;3.03;;
7199;SDS011;3641;49.082;8.200;2022-10-26T10:11:45;12.43;;;2.80;;
7199;SDS011;3641;49.082;8.200;2022-10-26T10:14:20;8.50;;;3.50;;
7199;SDS011;3641;49.082;8.200;2022-10-26T10:16:49;9.25;;;3.15;;
7199;SDS011;3641;49.082;8.200;2022-10-26T10:19:20;7.60;;;2.72;;
7199;SDS011;3641;49.082;8.200;2022-10-26T10:21:49;9.00;;;3.00;;
7199;SDS011;3641;49.082;8.200;2022-10-26T10:24:24;9.80;;;3.03;;
7199;SDS011;3641;49.082;8.200;2022-10-26T10:27:00;8.27;;;2.88;;
7199;SDS011;3641;49.082;8.200;2022-10-26T10:29:30;10.70;;;3.30;;
7199;SDS011;3641;49.082;8.200;2022-10-26T10:31:58;12.02;;;3.53;;
7199;SDS011;3641;49.082;8.200;2022-10-26T10:34:26;6.05;;;2.58;;
7199;SDS011;3641;49.082;8.200;2022-10-26T10:36:55;9.95;;;3.00;;
7199;SDS011;3641;49.082;8.200;2022-10-26T10:39:27;7.72;;;3.00;;
7199;SDS011;3641;49.082;8.200;2022-10-26T10:42:02;10.65;;;3.10;;
7199;SDS011;3641;49.082;8.200;2022-10-26T10:44:33;6.88;;;2.97;;
7199;SDS011;3641;49.082;8.200;2022-10-26T10:47:00;11.25;;;3.53;;
7199;SDS011;3641;49.082;8.200;2022-10-26T10:49:28;9.10;;;3.05;;
7199;SDS011;3641;49.082;8.200;2022-10-26T10:51:56;8.85;;;2.83;;
7199;SDS011;3641;49.082;8.200;2022-10-26T10:54:24;10.25;;;3.00;;
7199;SDS011;3641;49.082;8.200;2022-10-26T10:56:55;8.18;;;2.38;;
7199;SDS011;3641;49.082;8.200;2022-10-26T10:59:34;10.95;;;3.30;;
7199;SDS011;3641;49.082;8.200;2022-10-26T11:05:09;11.25;;;3.38;;
7199;SDS011;3641;49.082;8.200;2022-10-26T11:08:01;11.50;;;3.15;;
7199;SDS011;3641;49.082;8.200;2022-10-26T11:10:32;8.70;;;3.05;;
7199;SDS011;3641;49.082;8.200;2022-10-26T11:13:03;8.30;;;2.80;;
7199;SDS011;3641;49.082;8.200;2022-10-26T11:15:39;9.73;;;2.70;;
7199;SDS011;3641;49.082;8.200;2022-10-26T11:18:11;8.05;;;2.70;;
7199;SDS011;3641;49.082;8.200;2022-10-26T11:20:44;9.50;;;3.08;;
7199;SDS011;3641;49.082;8.200;2022-10-26T11:23:16;9.15;;;3.30;;
7199;SDS011;3641;49.082;8.200;2022-10-26T11:25:48;8.75;;;2.70;;
7199;SDS011;3641;49.082;8.200;2022-10-26T11:28:19;11.20;;;3.42;;
7199;SDS011;3641;49.082;8.200;2022-10-26T11:30:59;11.02;;;2.83;;
7199;SDS011;3641;49.082;8.200;2022-10-26T11:33:29;13.43;;;2.80;;
7199;SDS011;3641;49.082;8.200;2022-10-26T11:36:02;6.43;;;2.33;;
7199;SDS011;3641;49.082;8.200;2022-10-26T11:38:34;10.45;;;2.97;;
7199;SDS011;3641;49.082;8.200;2022-10-26T11:41:07;10.23;;;3.00;;
7199;SDS011;3641;49.082;8.200;2022-10-26T11:43:44;9.23;;;2.95;;
7199;SDS011;3641;49.082;8.200;2022-10-26T11:46:14;17.17;;;3.10;;
7199;SDS011;3641;49.082;8.200;2022-10-26T11:48:44;15.55;;;3.25;;
7199;SDS011;3641;49.082;8.200;2022-10-26T11:51:16;43.22;;;6.13;;
7199;SDS011;3641;49.082;8.200;2022-10-26T11:53:45;11.80;;;3.03;;
7199;SDS011;3641;49.082;8.200;2022-10-26T11:56:15;10.85;;;2.67;;
7199;SDS011;3641;49.082;8.200;2022-10-26T11:58:50;11.85;;;2.83;;
7199;SDS011;3641;49.082;8.200;2022-10-26T12:01:18;11.63;;;2.80;;
7199;SDS011;3641;49.082;8.200;2022-10-26T12:03:46;9.05;;;2.85;;
7199;SDS011;3641;49.082;8.200;2022-10-26T12:06:17;9.38;;;2.40;;
7199;SDS011;3641;49.082;8.200;2022-10-26T12:08:46;21.75;;;3.50;;
7199;SDS011;3641;49.082;8.200;2022-10-26T12:11:23;8.18;;;2.15;;
7199;SDS011;3641;49.082;8.200;2022-10-26T12:13:58;8.02;;;2.58;;
7199;SDS011;3641;49.082;8.200;2022-10-26T12:16:38;33.92;;;5.60;;
7199;SDS011;3641;49.082;8.200;2022-10-26T12:19:13;12.27;;;2.67;;
7199;SDS011;3641;49.082;8.200;2022-10-26T12:21:45;10.77;;;2.72;;
7199;SDS011;3641;49.082;8.200;2022-10-26T12:24:24;10.70;;;2.40;;
7199;SDS011;3641;49.082;8.200;2022-10-26T12:26:53;11.45;;;2.80;;
7199;SDS011;3641;49.082;8.200;2022-10-26T12:35:33;7.72;;;2.60;;
7199;SDS011;3641;49.082;8.200;2022-10-26T12:41:06;11.18;;;3.13;;
7199;SDS011;3641;49.082;8.200;2022-10-26T12:43:39;12.30;;;2.90;;
7199;SDS011;3641;49.082;8.200;2022-10-26T12:52:24;28.50;;;5.13;;
7199;SDS011;3641;49.082;8.200;2022-10-26T12:58:01;8.75;;;2.70;;
7199;SDS011;3641;49.082;8.200;2022-10-26T13:00:38;12.95;;;2.90;;
7199;SDS011;3641;49.082;8.200;2022-10-26T13:03:14;6.90;;;2.40;;
7199;SDS011;3641;49.082;8.200;2022-10-26T13:06:02;8.05;;;3.00;;
7199;SDS011;3641;49.082;8.200;2022-10-26T13:08:44;7.68;;;2.45;;
7199;SDS011;3641;49.082;8.200;2022-10-26T13:11:15;9.43;;;2.45;;
7199;SDS011;3641;49.082;8.200;2022-10-26T13:13:44;8.40;;;2.53;;
7199;SDS011;3641;49.082;8.200;2022-10-26T13:16:18;10.18;;;2.65;;
7199;SDS011;3641;49.082;8.200;2022-10-26T13:18:45;6.40;;;2.40;;
7199;SDS011;3641;49.082;8.200;2022-10-26T13:21:17;8.60;;;2.63;;
7199;SDS011;3641;49.082;8.200;2022-10-26T13:23:48;8.90;;;2.47;;
7199;SDS011;3641;49.082;8.200;2022-10-26T13:26:26;7.40;;;2.60;;
7199;SDS011;3641;49.082;8.200;2022-10-26T13:28:56;12.77;;;2.85;;
7199;SDS011;3641;49.082;8.200;2022-10-26T13:34:20;9.55;;;2.65;;
7199;SDS011;3641;49.082;8.200;2022-10-26T13:36:50;9.82;;;2.60;;
7199;SDS011;3641;49.082;8.200;2022-10-26T13:39:22;44.20;;;5.72;;
7199;SDS011;3641;49.082;8.200;2022-10-26T13:41:51;6.32;;;2.45;;
7199;SDS011;3641;49.082;8.200;2022-10-26T13:44:21;6.70;;;2.30;;
7199;SDS011;3641;49.082;8.200;2022-10-26T13:47:01;10.65;;;2.45;;
7199;SDS011;3641;49.082;8.200;2022-10-26T13:49:32;9.18;;;3.13;;
7199;SDS011;3641;49.082;8.200;2022-10-26T13:52:03;11.00;;;2.95;;
7199;SDS011;3641;49.082;8.200;2022-10-26T13:54:41;8.30;;;2.10;;
7199;SDS011;3641;49.082;8.200;2022-10-26T13:57:12;7.82;;;2.10;;
7199;SDS011;3641;49.082;8.200;2022-10-26T13:59:44;8.35;;;2.33;;
7199;SDS011;3641;49.082;8.200;2022-10-26T14:02:15;10.55;;;2.58;;
7199;SDS011;3641;49.082;8.200;2022-10-26T14:04:46;8.98;;;2.60;;
7199;SDS011;3641;49.082;8.200;2022-10-26T14:07:17;6.03;;;2.33;;
7199;SDS011;3641;49.082;8.200;2022-10-26T14:09:54;5.97;;;2.15;;
7199;SDS011;3641;49.082;8.200;2022-10-26T14:12:23;9.27;;;2.88;;
7199;SDS011;3641;49.082;8.200;2022-10-26T14:14:53;12.57;;;2.72;;
7199;SDS011;3641;49.082;8.200;2022-10-26T14:17:26;9.13;;;2.40;;
7199;SDS011;3641;49.082;8.200;2022-10-26T14:19:53;9.07;;;2.38;;
7199;SDS011;3641;49.082;8.200;2022-10-26T14:22:20;8.50;;;2.92;;
7199;SDS011;3641;49.082;8.200;2022-10-26T14:24:50;8.40;;;2.13;;
7199;SDS011;3641;49.082;8.200;2022-10-26T14:27:19;7.32;;;2.40;;
7199;SDS011;3641;49.082;8.200;2022-10-26T14:29:47;9.65;;;2.78;;
7199;SDS011;3641;49.082;8.200;2022-10-26T14:32:20;20.23;;;3.95;;
7199;SDS011;3641;49.082;8.200;2022-10-26T14:34:47;8.60;;;2.30;;
7199;SDS011;3641;49.082;8.200;2022-10-26T14:37:17;16.58;;;3.10;;
7199;SDS011;3641;49.082;8.200;2022-10-26T14:39:53;8.95;;;2.38;;
7199;SDS011;3641;49.082;8.200;2022-10-26T14:42:23;15.05;;;2.85;;
7199;SDS011;3641;49.082;8.200;2022-10-26T14:44:52;8.38;;;2.78;;
7199;SDS011;3641;49.082;8.200;2022-10-26T14:47:22;9.27;;;2.75;;
7199;SDS011;3641;49.082;8.200;2022-10-26T14:49:50;8.02;;;2.35;;
7199;SDS011;3641;49.082;8.200;2022-10-26T14:52:19;6.63;;;2.08;;
7199;SDS011;3641;49.082;8.200;2022-10-26T14:54:55;5.18;;;2.00;;
7199;SDS011;3641;49.082;8.200;2022-10-26T14:57:34;6.18;;;2.47;;
7199;SDS011;3641;49.082;8.200;2022-10-26T15:00:04;6.07;;;2.30;;
7199;SDS011;3641;49.082;8.200;2022-10-26T15:02:40;7.93;;;2.22;;
7199;SDS011;3641;49.082;8.200;2022-10-26T15:05:17;10.10;;;2.70;;
7199;SDS011;3641;49.082;8.200;2022-10-26T15:07:45;9.40;;;2.50;;
7199;SDS011;3641;49.082;8.200;2022-10-26T15:13:19;9.05;;;3.33;;
7199;SDS011;3641;49.082;8.200;2022-10-26T15:15:49;8.88;;;2.45;;
7199;SDS011;3641;49.082;8.200;2022-10-26T15:18:18;11.43;;;2.85;;
7199;SDS011;3641;49.082;8.200;2022-10-26T15:20:47;6.28;;;1.90;;
7199;SDS011;3641;49.082;8.200;2022-10-26T15:23:16;7.50;;;2.35;;
7199;SDS011;3641;49.082;8.200;2022-10-26T15:25:48;9.35;;;2.78;;
7199;SDS011;3641;49.082;8.200;2022-10-26T15:28:22;9.75;;;2.75;;
7199;SDS011;3641;49.082;8.200;2022-10-26T15:30:59;7.78;;;2.42;;
7199;SDS011;3641;49.082;8.200;2022-10-26T15:33:28;8.70;;;3.08;;
7199;SDS011;3641;49.082;8.200;2022-10-26T15:36:11;8.20;;;2.97;;
7199;SDS011;3641;49.082;8.200;2022-10-26T15:38:39;7.93;;;2.65;;
7199;SDS011;3641;49.082;8.200;2022-10-26T15:41:08;8.73;;;2.88;;
7199;SDS011;3641;49.082;8.200;2022-10-26T15:43:41;7.82;;;2.58;;
7199;SDS011;3641;49.082;8.200;2022-10-26T15:46:08;7.53;;;3.08;;
7199;SDS011;3641;49.082;8.200;2022-10-26T15:48:35;9.63;;;2.47;;
7199;SDS011;3641;49.082;8.200;2022-10-26T15:51:01;7.88;;;2.65;;
7199;SDS011;3641;49.082;8.200;2022-10-26T15:53:28;8.27;;;2.90;;
7199;SDS011;3641;49.082;8.200;2022-10-26T15:55:55;8.32;;;2.90;;